Time;durP1;ratioP1;P1;durP2;ratioP2;P2;SDS_P1;SDS_P2;PMS_P1;PMS_P2;Temp;Humidity;BMP_temperature;BMP_pressure;BME280_temperature;BME280_humidity;BME280_pressure;Samples;Min_cycle;Max_cycle;Signal;HPM_P1;HPM_P2
2021/04/02 00:02:30;;;;;;;23.70;14.93;;;;;;;31.02;53.75;100775.66;5045260;28;67303;-38
2021/04/02 00:05:00;;;;;;;28.38;14.60;;;;;;;31.05;53.95;100772.50;5047870;28;70699;-37
2021/04/02 00:07:31;;;;;;;16.83;14.80;;;;;;;31.06;54.83;100765.19;5041881;28;67818;-37
2021/04/02 00:10:01;;;;;;;24.13;15.68;;;;;;;31.21;55.03;100783.81;5042466;28;70145;-36
2021/04/02 00:12:32;;;;;;;17.00;15.27;;;;;;;31.17;55.90;100778.00;5047160;28;65191;-37
2021/04/02 00:15:16;;;;;;;22.17;14.75;;;;;;;31.29;55.50;100799.78;5037445;28;70333;-38
2021/04/02 00:17:52;;;;;;;19.33;14.55;;;;;;;31.31;56.62;100797.66;5033306;28;66986;-37
2021/04/02 00:20:23;;;;;;;19.42;13.50;;;;;;;31.39;56.67;100802.81;5039373;28;69762;-38
2021/04/02 00:22:53;;;;;;;23.00;14.02;;;;;;;31.38;56.88;100809.28;5041516;28;66665;-37
2021/04/02 00:25:26;;;;;;;16.08;12.60;;;;;;;31.33;57.71;100798.25;5045983;28;69883;-39
2021/04/02 00:27:56;;;;;;;23.52;12.55;;;;;;;31.37;57.80;100804.91;5049719;28;66040;-43
2021/04/02 00:30:52;;;;;;;12.02;10.90;;;;;;;31.24;57.79;100799.63;5049317;28;69242;-36
2021/04/02 00:33:25;;;;;;;12.95;11.55;;;;;;;31.19;57.31;100783.19;5034790;28;65490;-36
2021/04/02 00:35:56;;;;;;;16.20;11.68;;;;;;;31.41;57.70;100816.97;5051663;28;69629;-36
2021/04/02 00:38:27;;;;;;;12.00;10.63;;;;;;;31.40;56.92;100809.91;5057461;28;67446;-36
2021/04/02 00:41:10;;;;;;;13.25;11.55;;;;;;;31.35;58.03;100804.28;5052101;28;70827;-36
2021/04/02 00:43:50;;;;;;;12.20;10.38;;;;;;;31.37;56.44;100804.91;5050848;28;66177;-36
2021/04/02 00:46:23;;;;;;;12.18;11.15;;;;;;;31.43;56.59;100814.88;5057757;28;70460;-36
2021/04/02 00:48:53;;;;;;;12.18;10.80;;;;;;;31.39;57.12;100813.66;5056509;28;66205;-35
2021/04/02 00:51:25;;;;;;;11.80;10.50;;;;;;;31.42;56.88;100813.19;5056324;28;70083;-36
2021/04/02 00:53:56;;;;;;;14.43;10.80;;;;;;;31.40;56.93;100820.75;5051212;28;66599;-35
2021/04/02 00:56:27;;;;;;;11.65;9.73;;;;;;;31.43;56.91;100831.13;5054611;28;69005;-36
2021/04/02 00:58:58;;;;;;;12.43;10.68;;;;;;;31.42;56.19;100840.28;5056916;28;66048;-37
2021/04/02 01:01:29;;;;;;;17.38;10.48;;;;;;;31.45;56.42;100844.44;5055043;28;70276;-36
2021/04/02 01:04:00;;;;;;;10.63;9.70;;;;;;;31.46;55.88;100844.22;5050093;28;66143;-35
2021/04/02 01:06:30;;;;;;;14.07;9.73;;;;;;;31.50;55.71;100848.13;5043138;28;69406;-35
2021/04/02 01:09:00;;;;;;;11.43;10.52;;;;;;;31.49;56.06;100849.19;5056869;28;66283;-36
2021/04/02 01:11:34;;;;;;;14.52;9.70;;;;;;;31.48;55.66;100844.00;5054135;28;69981;-36
2021/04/02 01:14:06;;;;;;;11.75;10.43;;;;;;;31.52;55.57;100846.03;5051774;28;65912;-35
2021/04/02 01:16:37;;;;;;;10.80;9.68;;;;;;;31.52;55.74;100848.75;5047556;28;70743;-36
2021/04/02 01:19:10;;;;;;;10.43;9.45;;;;;;;31.55;55.93;100853.72;5053321;28;65172;-36
2021/04/02 01:22:05;;;;;;;11.23;9.02;;;;;;;31.45;56.01;100850.69;5053981;28;69416;-36
2021/04/02 01:24:55;;;;;;;12.07;8.50;;;;;;;31.53;55.84;100868.53;5045968;28;65485;-36
2021/04/02 01:28:09;;;;;;;10.10;9.15;;;;;;;31.52;56.01;100875.84;5042449;28;69410;-37
2021/04/02 01:30:41;;;;;;;10.48;9.43;;;;;;;31.57;55.69;100870.59;5055737;28;65668;-36
2021/04/02 01:33:16;;;;;;;9.25;8.45;;;;;;;31.50;55.20;100860.88;5054413;28;69316;-36
2021/04/02 01:35:48;;;;;;;9.57;8.88;;;;;;;31.60;55.54;100874.75;5055678;28;65865;-36
2021/04/02 01:38:30;;;;;;;9.57;8.77;;;;;;;31.63;55.48;100873.47;5056609;28;69891;-35
2021/04/02 01:41:05;;;;;;;9.60;8.70;;;;;;;31.64;54.97;100870.50;5044757;28;65554;-36
2021/04/02 01:43:44;;;;;;;9.27;8.43;;;;;;;31.60;55.61;100869.31;5056045;28;69933;-38
2021/04/02 01:46:22;;;;;;;9.35;8.43;;;;;;;31.57;54.88;100857.03;5043071;28;66342;-36
2021/04/02 01:48:57;;;;;;;9.77;8.85;;;;;;;31.69;54.84;100872.56;5050262;28;70006;-35
2021/04/02 01:51:31;;;;;;;9.55;8.82;;;;;;;31.71;55.03;100873.16;5055751;28;66322;-36
2021/04/02 01:54:03;;;;;;;10.75;8.35;;;;;;;31.75;55.12;100875.19;5057628;28;70044;-35
2021/04/02 01:56:35;;;;;;;8.40;7.90;;;;;;;31.73;54.63;100865.59;5052483;28;65452;-36
2021/04/02 01:59:07;;;;;;;7.55;7.15;;;;;;;31.76;54.86;100870.56;5049572;28;69809;-37
2021/04/02 02:01:45;;;;;;;8.40;7.75;;;;;;;31.82;54.29;100872.41;5054049;28;65333;-36
2021/04/02 02:04:22;;;;;;;9.18;8.48;;;;;;;31.85;54.85;100865.69;5053683;28;69906;-37
2021/04/02 02:06:56;;;;;;;8.27;7.72;;;;;;;31.88;54.70;100863.34;5036270;28;66501;-36
2021/04/02 02:09:48;;;;;;;8.45;7.85;;;;;;;31.88;54.58;100860.63;5070264;28;69682;-36
2021/04/02 02:12:40;;;;;;;7.45;6.90;;;;;;;31.91;54.17;100860.22;5052841;28;66742;-36
2021/04/02 02:15:38;;;;;;;8.07;7.45;;;;;;;31.94;53.95;100854.31;5052018;28;70565;-36
2021/04/02 02:18:20;;;;;;;8.77;8.02;;;;;;;31.96;54.01;100863.06;5054545;28;66020;-36
2021/04/02 02:20:56;;;;;;;8.13;7.55;;;;;;;31.93;54.10;100855.41;5051561;28;70465;-36
2021/04/02 02:23:28;;;;;;;7.63;6.95;;;;;;;31.96;53.89;100846.78;5048970;28;65610;-36
2021/04/02 02:25:59;;;;;;;8.70;8.10;;;;;;;31.99;54.30;100857.19;5048921;28;70028;-36
2021/04/02 02:28:30;;;;;;;8.23;7.72;;;;;;;32.02;54.25;100856.72;5050572;28;65846;-36
2021/04/02 02:31:03;;;;;;;7.03;6.55;;;;;;;32.02;53.63;100850.47;5054213;28;69259;-36
2021/04/02 02:33:40;;;;;;;7.97;7.38;;;;;;;32.07;54.00;100852.47;5068474;28;64740;-38
2021/04/02 02:36:25;;;;;;;8.23;7.63;;;;;;;32.12;53.76;100852.63;5055500;28;69553;-36
2021/04/02 02:39:00;;;;;;;7.20;6.70;;;;;;;32.15;53.38;100849.44;5035441;28;43640;-36
2021/04/02 02:41:31;;;;;;;7.18;6.57;;;;;;;32.15;53.83;100838.59;5036361;28;69905;-37
2021/04/02 02:44:05;;;;;;;7.57;7.05;;;;;;;32.16;53.48;100835.66;5052008;28;65533;-36
2021/04/02 02:46:36;;;;;;;9.48;6.53;;;;;;;32.17;53.25;100831.06;5052357;28;70296;-38
2021/04/02 02:49:19;;;;;;;7.57;7.00;;;;;;;32.21;53.64;100832.28;5050556;28;66287;-37
2021/04/02 02:51:57;;;;;;;7.10;6.68;;;;;;;32.25;53.67;100823.41;5051754;28;69953;-36
2021/04/02 02:54:33;;;;;;;7.10;6.43;;;;;;;32.17;53.64;100804.75;5050805;28;65714;-36
2021/04/02 02:57:06;;;;;;;6.93;6.50;;;;;;;32.26;53.73;100805.25;5046807;28;70078;-37
2021/04/02 02:59:40;;;;;;;6.80;6.38;;;;;;;32.32;53.20;100811.63;5039131;28;66051;-36
2021/04/02 03:02:20;;;;;;;7.32;6.40;;;;;;;32.33;53.29;100814.13;5043234;28;70466;-38
2021/04/02 03:04:52;;;;;;;7.13;6.63;;;;;;;32.35;52.78;100801.16;5054004;28;66010;-37
2021/04/02 03:07:28;;;;;;;8.52;6.80;;;;;;;32.32;52.78;100785.34;5056581;28;69963;-37
2021/04/02 03:09:59;;;;;;;7.55;6.82;;;;;;;32.41;52.83;100804.81;5043628;28;66571;-36
2021/04/02 03:12:34;;;;;;;7.53;6.55;;;;;;;32.41;52.75;100799.41;5055065;28;69976;-36
2021/04/02 03:15:06;;;;;;;8.77;6.72;;;;;;;32.44;52.88;100793.50;5054201;28;66254;-37
2021/04/02 03:17:38;;;;;;;6.95;6.53;;;;;;;32.44;52.91;100788.06;5020090;28;70371;-38
2021/04/02 03:20:09;;;;;;;;;;;;;;;32.40;53.09;100787.72;5052116;28;65883;-36
2021/04/02 03:22:43;;;;;;;6.40;6.00;;;;;;;32.49;52.38;100775.47;5052566;28;69641;-37
2021/04/02 03:25:22;;;;;;;6.70;6.30;;;;;;;32.56;52.42;100774.53;5052964;28;66569;-36
2021/04/02 03:27:58;;;;;;;7.18;6.63;;;;;;;32.58;52.71;100772.41;5053560;28;70373;-37
2021/04/02 03:30:37;;;;;;;6.80;6.40;;;;;;;32.61;52.11;100772.78;5056071;28;66260;-37
2021/04/02 03:33:20;;;;;;;9.15;7.18;;;;;;;32.62;52.12;100763.56;5057222;28;70373;-36
2021/04/02 03:36:07;;;;;;;6.38;5.88;;;;;;;32.64;52.09;100760.63;5044601;28;65700;-37
2021/04/02 03:38:41;;;;;;;6.82;6.43;;;;;;;32.68;51.98;100762.63;5052752;28;70376;-37
2021/04/02 03:41:19;;;;;;;6.68;6.18;;;;;;;32.67;52.33;100749.28;5051625;28;65668;-36
2021/04/02 03:43:51;;;;;;;6.95;6.43;;;;;;;32.69;51.86;100742.56;5049816;28;69082;-37
2021/04/02 03:46:23;;;;;;;7.28;6.70;;;;;;;32.76;51.60;100747.84;5051330;28;65617;-37
2021/04/02 03:49:00;;;;;;;6.80;6.40;;;;;;;32.71;51.46;100726.03;5056845;28;70938;-37
2021/04/02 03:51:39;;;;;;;7.18;6.72;;;;;;;32.85;51.64;100738.31;5056905;28;66782;-39
2021/04/02 03:54:12;;;;;;;7.10;6.63;;;;;;;32.89;51.39;100736.75;5053129;28;69348;-36
2021/04/02 03:56:47;;;;;;;7.65;7.15;;;;;;;32.86;51.62;100730.97;5054743;28;65924;-35
2021/04/02 03:59:26;;;;;;;7.20;6.57;;;;;;;32.90;51.56;100721.28;5057548;28;69203;-46
2021/04/02 04:01:59;;;;;;;6.35;5.78;;;;;;;32.87;51.70;100717.13;5042899;28;65366;-37
2021/04/02 04:04:32;;;;;;;6.90;6.38;;;;;;;32.91;51.55;100712.91;5038416;28;69836;-38
2021/04/02 04:07:10;;;;;;;6.57;6.07;;;;;;;32.96;51.19;100703.19;5056612;28;64940;-37
2021/04/02 04:09:44;;;;;;;7.35;6.85;;;;;;;33.00;51.30;100699.78;5055312;28;69537;-37
2021/04/02 04:12:24;;;;;;;6.93;6.47;;;;;;;33.06;51.33;100692.56;5057363;28;66020;-36
2021/04/02 04:15:03;;;;;;;6.95;6.43;;;;;;;33.02;51.04;100686.81;5055631;28;70325;-36
2021/04/02 04:17:43;;;;;;;6.68;6.28;;;;;;;33.08;51.05;100671.44;5046627;28;64818;-36
2021/04/02 04:20:16;;;;;;;6.90;6.30;;;;;;;33.03;51.16;100672.13;5058112;28;69619;-36
2021/04/02 04:23:08;;;;;;;7.55;6.85;;;;;;;33.07;51.14;100667.91;5046363;28;65662;-36
2021/04/02 04:25:39;;;;;;;7.05;6.43;;;;;;;33.10;50.88;100666.59;5058334;28;70357;-37
2021/04/02 04:28:11;;;;;;;6.70;6.20;;;;;;;33.12;50.93;100665.25;5058662;28;66331;-37
2021/04/02 04:30:45;;;;;;;7.18;6.63;;;;;;;33.12;51.21;100653.56;5057580;28;70601;-37
2021/04/02 04:33:18;;;;;;;7.55;6.53;;;;;;;33.15;50.62;100647.63;5056620;28;66232;-36
2021/04/02 04:35:51;;;;;;;6.68;6.28;;;;;;;33.10;50.63;100633.97;5047953;28;69788;-36
2021/04/02 04:38:24;;;;;;;6.53;6.10;;;;;;;33.17;50.81;100628.38;5046204;28;65908;-38
2021/04/02 04:40:57;;;;;;;7.32;6.72;;;;;;;33.10;50.33;100613.06;5047489;28;70408;-36
2021/04/02 04:43:31;;;;;;;7.10;6.43;;;;;;;33.28;50.66;100631.06;5054603;28;65798;-37
2021/04/02 04:46:01;;;;;;;6.85;6.45;;;;;;;33.26;50.84;100627.75;5071481;28;69784;-37
2021/04/02 04:48:31;;;;;;;7.30;6.68;;;;;;;33.27;50.62;100617.72;5058209;28;65207;-37
2021/04/02 04:51:05;;;;;;;7.10;6.40;;;;;;;33.31;50.48;100619.69;5055085;28;68778;-37
2021/04/02 04:53:39;;;;;;;9.95;7.57;;;;;;;33.32;50.65;100617.78;5057083;28;65075;-36
2021/04/02 04:56:12;;;;;;;7.70;7.10;;;;;;;33.33;50.34;100606.69;5058284;28;70274;-38
2021/04/02 04:58:47;;;;;;;10.52;6.57;;;;;;;33.34;50.56;100594.72;5057176;28;65275;-37
2021/04/02 05:01:18;;;;;;;7.25;6.75;;;;;;;33.34;50.86;100596.63;5057156;28;69851;-36
2021/04/02 05:03:50;;;;;;;8.00;7.07;;;;;;;33.35;50.27;100593.69;5055429;28;64888;-36
2021/04/02 05:06:23;;;;;;;7.38;6.90;;;;;;;33.36;50.43;100606.19;5055271;28;70049;-37
2021/04/02 05:08:55;;;;;;;8.07;7.40;;;;;;;33.36;50.58;100595.31;5057657;28;66938;-37
2021/04/02 05:11:27;;;;;;;7.10;6.60;;;;;;;33.37;50.22;100590.69;5057644;28;69667;-36
2021/04/02 05:14:02;;;;;;;7.47;6.88;;;;;;;33.31;50.53;100576.19;5056696;28;65877;-37
2021/04/02 05:16:33;;;;;;;7.78;7.25;;;;;;;33.45;50.12;100586.78;5052611;28;70507;-37
2021/04/02 05:19:04;;;;;;;9.35;7.70;;;;;;;33.49;50.19;100577.03;5058615;28;65870;-36
2021/04/02 05:21:42;;;;;;;7.47;7.07;;;;;;;33.50;50.17;100571.38;5052307;28;70492;-37
2021/04/02 05:24:12;;;;;;;8.00;7.30;;;;;;;33.53;50.25;100567.38;5051403;28;65781;-36
2021/04/02 05:26:43;;;;;;;8.10;7.50;;;;;;;33.52;49.70;100565.69;5050033;28;69019;-37
2021/04/02 05:29:13;;;;;;;7.68;7.07;;;;;;;33.52;50.24;100557.53;5058035;28;65185;-36
2021/04/02 05:31:45;;;;;;;8.02;7.43;;;;;;;33.54;50.16;100558.13;5056133;28;68835;-35
2021/04/02 05:34:16;;;;;;;7.97;7.47;;;;;;;33.58;49.69;100553.84;5054707;28;66113;-37
2021/04/02 05:36:46;;;;;;;7.47;6.88;;;;;;;33.58;49.74;100551.13;5054842;28;69105;-36
2021/04/02 05:39:17;;;;;;;7.22;6.65;;;;;;;33.62;49.50;100544.13;5053550;28;66087;-36
2021/04/02 05:41:59;;;;;;;7.68;7.18;;;;;;;33.63;49.72;100540.34;5053838;28;69108;-36
2021/04/02 05:44:35;;;;;;;7.30;6.70;;;;;;;33.67;49.69;100522.44;5054698;28;65541;-36
2021/04/02 05:47:12;;;;;;;7.07;6.70;;;;;;;33.67;49.66;100518.91;5047982;28;69819;-36
2021/04/02 05:49:44;;;;;;;8.40;7.80;;;;;;;33.69;49.53;100514.06;5047256;28;65684;-36
2021/04/02 05:52:14;;;;;;;;;;;;;;;33.66;49.86;100518.09;5056386;28;70189;-37
2021/04/02 05:54:47;;;;;;;7.70;7.10;;;;;;;33.79;49.48;100512.31;5054399;28;66770;-36
2021/04/02 05:57:18;;;;;;;7.38;6.68;;;;;;;33.82;49.39;100505.53;5050286;28;69303;-37
2021/04/02 05:59:51;;;;;;;7.72;7.13;;;;;;;33.88;49.25;100493.66;5052520;28;66546;-37
2021/04/02 06:02:22;;;;;;;7.68;6.95;;;;;;;33.88;49.29;100498.25;5057486;28;70216;-37
2021/04/02 06:04:53;;;;;;;7.83;7.13;;;;;;;33.89;49.45;100480.88;5057327;28;65205;-36
2021/04/02 06:07:30;;;;;;;7.10;6.35;;;;;;;33.93;49.16;100490.19;5054391;28;69335;-37
2021/04/02 06:10:03;;;;;;;8.23;7.35;;;;;;;33.98;49.21;100484.81;5044624;28;66700;-37
2021/04/02 06:12:40;;;;;;;7.00;6.60;;;;;;;34.00;48.95;100469.06;5047475;28;70376;-37
2021/04/02 06:15:11;;;;;;;7.25;6.75;;;;;;;33.97;48.86;100459.50;5046771;28;65481;-37
2021/04/02 06:18:01;;;;;;;6.35;5.95;;;;;;;33.97;48.89;100459.50;5051159;28;69980;-37
2021/04/02 06:20:49;;;;;;;7.38;6.80;;;;;;;34.09;48.95;100455.88;5048609;28;65085;-36
2021/04/02 06:23:25;;;;;;;7.13;6.63;;;;;;;34.09;48.60;100442.25;5054869;28;69964;-37
2021/04/02 06:25:58;;;;;;;7.55;7.03;;;;;;;34.08;48.62;100433.28;5057450;28;66008;-36
2021/04/02 06:28:36;;;;;;;6.53;6.10;;;;;;;34.13;48.75;100435.22;5056589;28;69319;-37
2021/04/02 06:31:11;;;;;;;7.32;6.70;;;;;;;34.15;48.46;100431.16;5048714;28;66546;-37
2021/04/02 06:33:54;;;;;;;6.40;6.00;;;;;;;34.08;48.68;100411.50;5052520;28;69157;-36
2021/04/02 06:36:28;;;;;;;7.30;6.80;;;;;;;34.21;48.65;100422.03;5045570;28;66522;-37
2021/04/02 06:39:01;;;;;;;6.85;6.38;;;;;;;34.23;48.64;100419.03;5054796;28;70222;-35
2021/04/02 06:41:35;;;;;;;7.18;6.65;;;;;;;34.26;48.78;100411.16;5040647;28;65313;-37
2021/04/02 06:44:09;;;;;;;6.72;6.22;;;;;;;34.28;48.65;100410.09;5052669;28;70220;-36
2021/04/02 06:46:41;;;;;;;6.93;6.28;;;;;;;34.30;48.38;100402.47;5056209;28;66691;-38
2021/04/02 06:49:29;;;;;;;7.20;6.57;;;;;;;34.30;48.50;100403.31;5054809;28;69550;-37
2021/04/02 06:52:01;;;;;;;7.10;6.53;;;;;;;34.36;48.41;100398.75;5044158;28;65215;-37
2021/04/02 06:54:32;;;;;;;7.07;6.55;;;;;;;34.36;48.41;100385.97;5053630;28;69779;-37
2021/04/02 06:57:08;;;;;;;6.65;6.22;;;;;;;34.39;48.11;100380.00;5056321;28;66052;-36
2021/04/02 06:59:42;;;;;;;6.47;6.07;;;;;;;34.47;48.23;100376.00;5055084;28;70600;-37
2021/04/02 07:02:14;;;;;;;6.25;5.85;;;;;;;34.40;48.35;100354.41;5056040;28;65973;-37
2021/04/02 07:04:48;;;;;;;6.40;5.93;;;;;;;34.48;48.23;100372.19;5055580;28;69940;-36
2021/04/02 07:07:22;;;;;;;6.72;6.32;;;;;;;34.46;48.13;100368.91;5058308;28;66515;-36
2021/04/02 07:09:56;;;;;;;7.30;6.80;;;;;;;34.46;48.15;100358.00;5058382;28;70078;-37
2021/04/02 07:12:28;;;;;;;7.95;7.30;;;;;;;34.55;47.76;100361.91;5059332;28;66192;-37
2021/04/02 07:14:59;;;;;;;8.05;6.30;;;;;;;34.57;47.80;100348.06;5045400;28;69012;-38
2021/04/02 07:17:29;;;;;;;6.72;6.28;;;;;;;34.65;47.79;100351.13;5059822;28;65176;-37
2021/04/02 07:20:03;;;;;;;7.05;6.60;;;;;;;34.50;48.12;100321.03;5050079;28;69810;-39
2021/04/02 07:22:34;;;;;;;6.35;6.05;;;;;;;34.64;47.77;100333.16;5048718;28;66420;-37
2021/04/02 07:25:05;;;;;;;6.57;6.18;;;;;;;34.64;48.00;100337.78;5053774;28;70409;-35
2021/04/02 07:27:36;;;;;;;10.10;6.40;;;;;;;34.64;47.66;100338.59;5060557;28;66042;-38
2021/04/02 07:30:12;;;;;;;6.72;6.18;;;;;;;34.70;47.62;100332.13;5053696;28;69114;-38
2021/04/02 07:32:43;;;;;;;5.90;5.60;;;;;;;34.73;47.69;100319.06;5056034;28;66180;-37
2021/04/02 07:35:22;;;;;;;6.25;5.95;;;;;;;34.74;47.55;100321.50;5053539;28;69130;-38
2021/04/02 07:37:55;;;;;;;7.32;6.72;;;;;;;34.80;47.55;100330.53;5052117;28;65892;-37
2021/04/02 07:40:36;;;;;;;8.07;6.13;;;;;;;34.75;47.38;100311.47;5057572;28;70031;-38
2021/04/02 07:43:08;;;;;;;6.30;5.97;;;;;;;34.81;47.55;100296.78;5057224;28;64982;-37
2021/04/02 07:45:39;;;;;;;6.57;6.22;;;;;;;34.89;47.63;100307.19;5058478;28;70430;-38
2021/04/02 07:48:18;;;;;;;7.00;5.88;;;;;;;34.88;47.51;100300.94;5057807;28;65502;-37
2021/04/02 07:51:01;;;;;;;6.47;6.07;;;;;;;34.90;47.13;100297.94;5058946;28;69915;-37
2021/04/02 07:53:31;;;;;;;5.82;5.43;;;;;;;35.00;47.40;100297.19;5047964;28;65830;-36
2021/04/02 07:56:03;;;;;;;6.18;5.78;;;;;;;35.04;47.27;100288.22;5056761;28;70331;-37
2021/04/02 07:58:47;;;;;;;6.45;6.05;;;;;;;34.98;47.04;100285.72;5044826;28;65443;-37
2021/04/02 08:01:19;;;;;;;6.70;6.10;;;;;;;35.17;46.99;100297.06;5058838;28;69836;-36
2021/04/02 08:03:52;;;;;;;6.05;5.72;;;;;;;35.20;46.99;100286.44;5053301;28;65650;-37
2021/04/02 08:06:30;;;;;;;7.15;5.60;;;;;;;35.22;46.63;100281.56;5059101;28;68999;-37
2021/04/02 08:09:07;;;;;;;7.28;6.88;;;;;;;35.28;46.65;100277.75;5055248;28;66031;-37
2021/04/02 08:11:45;;;;;;;6.88;6.47;;;;;;;35.27;46.84;100283.47;5058555;28;69918;-37
2021/04/02 08:14:34;;;;;;;6.38;6.05;;;;;;;35.23;46.80;100274.19;5051709;28;66776;-36
2021/04/02 08:17:13;;;;;;;6.57;6.07;;;;;;;35.25;46.66;100266.56;5049696;28;69828;-38
2021/04/02 08:19:44;;;;;;;7.13;6.63;;;;;;;35.34;46.81;100270.44;5060514;28;66659;-37
2021/04/02 08:22:25;;;;;;;6.53;6.03;;;;;;;35.38;46.93;100276.97;5053095;28;70422;-37
2021/04/02 08:24:55;;;;;;;6.57;6.18;;;;;;;35.41;46.65;100264.72;5044608;28;66208;-37
2021/04/02 08:27:25;;;;;;;9.38;6.25;;;;;;;35.48;46.44;100266.13;5058039;28;69747;-38
2021/04/02 08:30:04;;;;;;;7.03;6.53;;;;;;;35.54;46.19;100259.59;5057148;28;66287;-37
2021/04/02 08:32:40;;;;;;;6.45;6.00;;;;;;;35.58;46.36;100249.84;5044647;28;68516;-36
2021/04/02 08:35:12;;;;;;;6.97;6.47;;;;;;;35.55;46.62;100239.44;5053811;28;65993;-38
2021/04/02 08:38:00;;;;;;;6.28;5.97;;;;;;;35.62;45.97;100249.28;5058139;28;69917;-37
2021/04/02 08:40:32;;;;;;;6.75;6.35;;;;;;;35.71;45.83;100244.94;5056865;28;65507;-37
2021/04/02 08:43:07;;;;;;;6.28;5.88;;;;;;;35.74;46.14;100247.13;5057749;28;69995;-37
2021/04/02 08:45:46;;;;;;;7.18;6.68;;;;;;;35.77;45.96;100239.25;5053985;28;66019;-39
2021/04/02 08:48:22;;;;;;;7.25;6.75;;;;;;;35.81;45.61;100245.00;5059105;28;69949;-38
2021/04/02 08:50:57;;;;;;;6.57;6.28;;;;;;;35.90;45.79;100235.16;5055519;28;64966;-36
2021/04/02 08:53:42;;;;;;;6.57;6.18;;;;;;;35.90;45.59;100235.16;5059304;28;70309;-38
2021/04/02 08:56:16;;;;;;;6.65;6.25;;;;;;;35.97;45.76;100230.28;5058028;28;65282;-37
2021/04/02 08:58:47;;;;;;;7.25;6.82;;;;;;;35.99;45.48;100227.28;5055815;28;69960;-37
2021/04/02 09:01:20;;;;;;;9.43;6.32;;;;;;;36.06;45.93;100222.41;5058469;28;65868;-38
2021/04/02 09:03:55;;;;;;;5.90;5.50;;;;;;;36.02;45.73;100230.28;5049109;28;69873;-37
2021/04/02 09:06:26;;;;;;;7.00;6.03;;;;;;;36.10;45.67;100217.22;5053486;28;66141;-37
2021/04/02 09:08:56;;;;;;;6.43;5.97;;;;;;;36.12;45.75;100206.84;5045863;28;69835;-38
2021/04/02 09:11:27;;;;;;;7.15;6.68;;;;;;;36.14;45.34;100210.13;5059442;28;65213;-37
2021/04/02 09:13:59;;;;;;;7.03;6.38;;;;;;;36.20;45.29;100219.97;5049839;28;69603;-37
2021/04/02 09:16:37;;;;;;;7.18;6.68;;;;;;;36.03;45.46;100176.50;5037362;28;66039;-37
2021/04/02 09:19:09;;;;;;;6.93;6.43;;;;;;;36.27;44.93;100215.03;5052321;28;70511;-37
2021/04/02 09:21:57;;;;;;;6.93;6.28;;;;;;;36.27;45.22;100211.50;5052525;28;65768;-38
2021/04/02 09:24:27;;;;;;;7.50;7.10;;;;;;;36.32;45.36;100220.50;5035629;28;70334;-38
2021/04/02 09:26:57;;;;;;;7.72;7.22;;;;;;;36.32;44.70;100220.50;5042472;28;65876;-37
2021/04/02 09:29:30;;;;;;;8.90;8.25;;;;;;;36.32;45.65;100225.16;5049870;28;69991;-37
2021/04/02 09:32:03;;;;;;;14.70;8.98;;;;;;;36.31;45.87;100218.88;5046761;28;65814;-39
2021/04/02 09:34:34;;;;;;;9.80;8.23;;;;;;;35.98;45.66;100231.91;5052728;28;69921;-39
2021/04/02 09:37:05;;;;;;;9.80;8.93;;;;;;;35.63;44.44;100223.66;5049141;28;66017;-38
2021/04/02 09:39:37;;;;;;;13.93;8.50;;;;;;;35.24;43.78;100230.28;5037749;28;69748;-39
2021/04/02 09:42:14;;;;;;;9.35;8.13;;;;;;;34.93;42.49;100226.56;5043131;28;66615;-38
2021/04/02 09:44:48;;;;;;;8.57;7.97;;;;;;;34.89;41.55;100220.00;5055433;28;68641;-38
2021/04/02 09:47:22;;;;;;;10.85;8.10;;;;;;;34.75;41.21;100225.09;5052921;28;66909;-37
2021/04/02 09:49:52;;;;;;;8.90;8.23;;;;;;;34.65;41.33;100231.28;5052793;28;69382;-36
2021/04/02 09:52:23;;;;;;;10.13;8.60;;;;;;;34.48;40.47;100227.84;5055038;28;65213;-38
2021/04/02 09:54:56;;;;;;;8.48;7.80;;;;;;;34.41;39.36;100235.44;5053286;28;70593;-37
2021/04/02 09:57:27;;;;;;;8.30;7.70;;;;;;;34.38;39.57;100241.38;5052361;28;65768;-38
2021/04/02 09:59:58;;;;;;;11.63;8.18;;;;;;;34.22;39.24;100235.81;5054302;28;69295;-37
2021/04/02 10:02:28;;;;;;;8.20;7.65;;;;;;;34.22;38.70;100249.44;5054132;28;65390;-37
2021/04/02 10:04:58;;;;;;;9.85;8.40;;;;;;;34.14;38.34;100244.44;5054830;28;70887;-38
2021/04/02 10:07:29;;;;;;;8.65;7.28;;;;;;;33.96;38.45;100240.19;5057141;28;65374;-37
2021/04/02 10:10:02;;;;;;;10.40;8.27;;;;;;;33.91;37.43;100242.03;5054643;28;70322;-37
2021/04/02 10:12:32;;;;;;;8.45;7.95;;;;;;;33.88;37.62;100258.84;5043544;28;65706;-36
2021/04/02 10:15:05;;;;;;;8.43;7.75;;;;;;;33.75;37.23;100255.44;5054366;28;69006;-39
2021/04/02 10:17:36;;;;;;;11.82;7.80;;;;;;;33.69;37.29;100256.47;5052526;28;66722;-38
2021/04/02 10:20:07;;;;;;;9.20;8.55;;;;;;;33.65;36.87;100259.94;5042574;28;69805;-38
2021/04/02 10:22:37;;;;;;;7.88;7.35;;;;;;;33.61;37.21;100270.50;5055657;28;66021;-38
2021/04/02 10:25:10;;;;;;;8.88;7.97;;;;;;;33.51;36.91;100259.47;5052431;28;68898;-37
2021/04/02 10:27:40;;;;;;;7.40;6.85;;;;;;;33.38;37.06;100261.50;5046279;28;66339;-37
2021/04/02 10:30:11;;;;;;;10.65;7.30;;;;;;;33.32;36.88;100267.97;5053015;28;69809;-37
2021/04/02 10:32:41;;;;;;;17.00;7.70;;;;;;;33.25;37.07;100272.75;5054005;28;65297;-37
2021/04/02 10:35:12;;;;;;;7.82;7.13;;;;;;;33.22;37.24;100277.88;5051969;28;69875;-36
2021/04/02 10:37:43;;;;;;;8.60;7.33;;;;;;;33.13;36.92;100269.31;5046103;28;66629;-38
2021/04/02 10:40:14;;;;;;;10.02;7.43;;;;;;;33.13;36.81;100282.91;5044510;28;70252;-37
2021/04/02 10:42:44;;;;;;;8.00;7.50;;;;;;;33.03;37.08;100275.41;5047011;28;66217;-38
2021/04/02 10:45:15;;;;;;;8.60;7.85;;;;;;;33.12;36.89;100292.13;5044748;28;69816;-38
2021/04/02 10:47:46;;;;;;;8.00;7.35;;;;;;;33.02;36.91;100298.25;5054363;28;65891;-37
2021/04/02 10:50:25;;;;;;;14.13;7.88;;;;;;;33.07;37.11;100300.19;5052839;28;70530;-36
2021/04/02 10:52:55;;;;;;;27.60;8.30;;;;;;;33.00;36.99;100307.72;5044700;28;65433;-37
2021/04/02 10:55:26;;;;;;;19.92;8.48;;;;;;;33.03;38.34;100318.06;5049442;28;70210;-38
2021/04/02 10:57:56;;;;;;;18.63;8.82;;;;;;;33.13;38.89;100312.81;5047688;28;67074;-36
2021/04/02 11:00:27;;;;;;;14.63;9.43;;;;;;;33.42;39.36;100331.69;5049534;28;69043;-36
2021/04/02 11:02:57;;;;;;;16.23;9.25;;;;;;;33.60;39.67;100345.03;5049493;28;66055;-36
2021/04/02 11:05:29;;;;;;;12.95;10.80;;;;;;;33.72;41.86;100353.88;5036786;28;70231;-37
2021/04/02 11:08:00;;;;;;;12.48;9.95;;;;;;;33.86;41.83;100364.41;5039770;28;65882;-35
2021/04/02 11:10:30;;;;;;;11.32;10.52;;;;;;;33.93;41.71;100370.44;5048665;28;69929;-37
2021/04/02 11:13:03;;;;;;;11.05;9.95;;;;;;;34.03;42.40;100370.59;5051763;28;66653;-36
2021/04/02 11:15:33;;;;;;;11.02;10.13;;;;;;;34.14;42.47;100375.09;5039120;28;69914;-36
2021/04/02 11:18:05;;;;;;;11.67;10.00;;;;;;;34.14;42.65;100369.66;5051724;28;65892;-36
2021/04/02 11:20:36;;;;;;;;;;;;;;;34.18;43.49;100386.28;5054983;28;70097;-36
2021/04/02 11:23:06;;;;;;;11.13;10.05;;;;;;;34.25;43.35;100389.66;5044554;28;66158;-37
2021/04/02 11:25:37;;;;;;;13.10;11.88;;;;;;;34.29;45.18;100398.13;5053813;28;70131;-37
2021/04/02 11:28:07;;;;;;;21.27;17.27;;;;;;;34.49;49.39;100422.84;5044746;28;65784;-37
2021/04/02 11:30:38;;;;;;;25.27;17.75;;;;;;;34.56;49.59;100418.06;5040183;28;70511;-37
2021/04/02 11:33:11;;;;;;;34.67;19.95;;;;;;;34.60;50.43;100423.81;5054741;28;65838;-38
2021/04/02 11:35:41;;;;;;;30.83;19.40;;;;;;;34.63;51.97;100421.41;5050833;28;68665;-37
2021/04/02 11:38:11;;;;;;;28.55;19.10;;;;;;;34.65;51.84;100421.97;5040457;28;65040;-38
2021/04/02 11:40:41;;;;;;;21.05;18.83;;;;;;;34.67;51.30;100417.09;5055647;28;68915;-37
2021/04/02 11:43:11;;;;;;;22.75;19.70;;;;;;;34.65;51.65;100419.22;5053081;28;66104;-37
2021/04/02 11:45:47;;;;;;;25.50;19.90;;;;;;;34.70;52.22;100424.75;5057097;28;69997;-36
2021/04/02 11:48:18;;;;;;;24.90;19.35;;;;;;;34.75;52.60;100423.16;5050493;28;66395;-39
2021/04/02 11:50:48;;;;;;;21.15;18.40;;;;;;;34.69;52.39;100427.75;5050976;28;70121;-39
2021/04/02 11:53:19;;;;;;;21.80;18.88;;;;;;;34.69;52.69;100420.38;5046493;28;66598;-39
2021/04/02 11:55:52;;;;;;;27.33;18.00;;;;;;;34.75;53.13;100436.78;5051491;28;69317;-40